Time;durP1;ratioP1;P1;durP2;ratioP2;P2;SDS_P1;SDS_P2;PMS_P1;PMS_P2;Temp;Humidity;BMP_temperature;BMP_pressure;BME280_temperature;BME280_humidity;BME280_pressure;Samples;Min_cycle;Max_cycle;Signal;HPM_P1;HPM_P2
2022/10/12 00:02:07;;;;;;;11.93;6.28;;;11.60;94.20;;;;;;5003082;28;20025;-86
2022/10/12 00:04:32;;;;;;;15.02;6.90;;;11.60;94.20;;;;;;5001406;28;20367;-86
2022/10/12 00:06:58;;;;;;;11.45;6.40;;;11.50;94.20;;;;;;5019624;28;20034;-86
2022/10/12 00:09:23;;;;;;;12.40;6.80;;;11.50;94.30;;;;;;5012943;28;20124;-87
2022/10/12 00:11:49;;;;;;;15.30;6.38;;;11.50;94.40;;;;;;4985054;28;20056;-87
2022/10/12 00:14:15;;;;;;;13.32;6.03;;;11.50;94.40;;;;;;5016990;28;20031;-87
2022/10/12 00:16:40;;;;;;;13.65;7.28;;;11.50;94.70;;;;;;5001100;28;20025;-87
2022/10/12 00:19:06;;;;;;;13.18;6.00;;;11.40;94.70;;;;;;5035206;28;20073;-87
2022/10/12 00:21:32;;;;;;;9.07;4.68;;;11.40;94.60;;;;;;5011089;28;20124;-87
2022/10/12 00:23:59;;;;;;;8.95;3.80;;;11.30;94.40;;;;;;5017139;28;20060;-87
2022/10/12 00:26:27;;;;;;;8.40;4.00;;;11.30;94.50;;;;;;5025285;28;20017;-87
2022/10/12 00:28:58;;;;;;;10.70;3.58;;;11.20;94.60;;;;;;5023035;28;20018;-87
2022/10/12 00:31:25;;;;;;;9.10;3.90;;;11.20;94.70;;;;;;5036865;28;20029;-87
2022/10/12 00:33:51;;;;;;;9.40;3.78;;;11.20;94.80;;;;;;5041486;28;20041;-87
2022/10/12 00:36:30;;;;;;;8.38;3.72;;;11.20;94.80;;;;;;5005955;28;20037;-87
2022/10/12 00:38:56;;;;;;;12.43;4.65;;;11.10;94.90;;;;;;5023729;28;20021;-87
2022/10/12 00:41:24;;;;;;;8.57;4.07;;;11.10;94.90;;;;;;5030994;28;20501;-87
2022/10/12 00:43:51;;;;;;;13.50;4.03;;;11.10;95.00;;;;;;5016714;28;20032;-87
2022/10/12 00:46:23;;;;;;;8.73;4.40;;;11.10;95.30;;;;;;5000458;28;20034;-86
2022/10/12 00:49:17;;;;;;;8.90;4.03;;;11.10;95.00;;;;;;5034476;28;20471;-86
2022/10/12 00:51:47;;;;;;;9.90;4.60;;;11.00;95.10;;;;;;5003296;28;20487;-87
2022/10/12 00:54:18;;;;;;;12.30;4.47;;;11.00;95.10;;;;;;5016824;28;20082;-87
2022/10/12 00:56:45;;;;;;;10.85;4.82;;;11.00;95.00;;;;;;5022094;28;20021;-87
2022/10/12 00:59:18;;;;;;;11.38;5.32;;;10.90;95.10;;;;;;5024440;28;20533;-87
2022/10/12 01:01:44;;;;;;;10.63;4.80;;;10.90;95.10;;;;;;5016452;28;20018;-87
2022/10/12 01:04:10;;;;;;;13.35;4.97;;;10.90;95.20;;;;;;5016603;28;20086;-87
2022/10/12 01:06:35;;;;;;;10.82;5.20;;;10.90;95.30;;;;;;5034270;28;20057;-87
2022/10/12 01:09:02;;;;;;;12.98;5.50;;;10.90;95.40;;;;;;5034241;28;20029;-87
2022/10/12 01:11:27;;;;;;;12.77;4.95;;;10.90;95.50;;;;;;5034348;28;20025;-87
2022/10/12 01:13:53;;;;;;;14.25;5.85;;;10.90;95.90;;;;;;5030448;28;20544;-87
2022/10/12 01:16:26;;;;;;;12.00;5.80;;;10.90;95.60;;;;;;5000087;28;20125;-87
2022/10/12 01:19:04;;;;;;;10.23;5.05;;;10.90;95.60;;;;;;5018231;28;20533;-87
2022/10/12 01:21:34;;;;;;;10.50;4.75;;;10.80;95.60;;;;;;5044318;28;20033;-87
2022/10/12 01:24:37;;;;;;;10.15;3.95;;;10.80;95.70;;;;;;5016251;28;20483;-86
2022/10/12 01:27:41;;;;;;;9.50;4.22;;;10.80;95.70;;;;;;5028552;28;20025;-87
2022/10/12 01:30:24;;;;;;;9.13;4.18;;;10.70;95.70;;;;;;5024818;28;20033;-87
2022/10/12 01:33:03;;;;;;;10.13;3.90;;;10.70;95.70;;;;;;5033735;28;20087;-87
2022/10/12 01:35:35;;;;;;;8.90;4.22;;;10.70;95.80;;;;;;5033918;28;20092;-87
2022/10/12 01:38:00;;;;;;;12.05;4.20;;;10.70;95.90;;;;;;5021579;28;20025;-87
2022/10/12 01:40:53;;;;;;;9.30;4.10;;;10.60;95.90;;;;;;5024435;28;20104;-87
2022/10/12 01:43:31;;;;;;;9.13;4.40;;;10.60;95.90;;;;;;5007725;28;20506;-87
2022/10/12 01:46:07;;;;;;;8.68;3.60;;;10.60;96.00;;;;;;5033603;28;20018;-87
2022/10/12 01:48:32;;;;;;;9.85;3.88;;;10.60;96.10;;;;;;5032280;28;20013;-86
2022/10/12 01:51:01;;;;;;;8.98;3.90;;;10.60;96.10;;;;;;5015897;28;20083;-87
2022/10/12 01:53:41;;;;;;;8.18;3.75;;;10.50;96.10;;;;;;5032396;28;20013;-87
2022/10/12 01:56:06;;;;;;;9.27;3.72;;;10.50;96.10;;;;;;5033490;28;20017;-87
2022/10/12 01:58:35;;;;;;;8.10;3.70;;;10.50;96.00;;;;;;5033114;28;20045;-87
2022/10/12 02:01:24;;;;;;;7.00;3.65;;;10.50;96.10;;;;;;5015678;28;20021;-87
2022/10/12 02:04:04;;;;;;;8.07;3.75;;;10.40;96.20;;;;;;5033330;28;20474;-86
2022/10/12 02:06:37;;;;;;;7.90;3.97;;;10.50;96.20;;;;;;5015911;28;20022;-87
2022/10/12 02:09:31;;;;;;;8.35;3.80;;;10.40;96.30;;;;;;5014462;28;20029;-87
2022/10/12 02:12:02;;;;;;;12.15;4.22;;;10.40;96.40;;;;;;5014556;28;20114;-87
2022/10/12 02:14:34;;;;;;;;;;;10.40;96.40;;;;;;5015955;28;20016;-87
2022/10/12 02:17:00;;;;;;;;;;;10.40;96.50;;;;;;5033629;28;19905;-87
2022/10/12 02:19:29;;;;;;;11.07;4.88;;;10.30;96.70;;;;;;5033144;28;19905;-87
2022/10/12 02:22:00;;;;;;;9.80;4.45;;;10.30;96.60;;;;;;5040402;28;20017;-87
2022/10/12 02:24:29;;;;;;;10.30;5.43;;;10.30;96.70;;;;;;5034855;28;20052;-86
2022/10/12 02:26:55;;;;;;;9.05;4.45;;;10.30;96.70;;;;;;5015365;28;20013;-87
2022/10/12 02:29:38;;;;;;;9.95;4.35;;;10.20;96.90;;;;;;5015892;28;20467;-87
2022/10/12 02:32:20;;;;;;;10.05;4.53;;;10.20;96.70;;;;;;5015293;28;20013;-87
2022/10/12 02:34:54;;;;;;;9.95;4.45;;;10.20;96.70;;;;;;5015091;28;20372;-87
2022/10/12 02:37:40;;;;;;;12.70;5.07;;;10.20;96.80;;;;;;5034020;28;20021;-87
2022/10/12 02:40:18;;;;;;;11.20;4.43;;;10.20;96.80;;;;;;5036893;28;20078;-87
2022/10/12 02:42:50;;;;;;;10.50;3.92;;;10.20;96.90;;;;;;5036926;28;20057;-87
2022/10/12 02:45:18;;;;;;;9.00;4.18;;;10.10;96.90;;;;;;5019166;28;20021;-87
2022/10/12 02:47:47;;;;;;;12.05;4.30;;;10.10;96.90;;;;;;5036829;28;20116;-87
2022/10/12 02:50:14;;;;;;;13.50;4.43;;;10.10;97.10;;;;;;5018906;28;20455;-87
2022/10/12 02:52:40;;;;;;;9.65;3.92;;;10.10;97.20;;;;;;5019052;28;20075;-87
2022/10/12 02:55:06;;;;;;;12.60;4.05;;;10.10;97.20;;;;;;4989451;28;20112;-87
2022/10/12 02:57:32;;;;;;;8.68;4.25;;;10.10;97.20;;;;;;5029486;28;20083;-87
2022/10/12 02:59:57;;;;;;;14.18;4.85;;;10.10;97.30;;;;;;5012073;28;20038;-87
2022/10/12 03:02:23;;;;;;;8.82;4.10;;;10.10;97.40;;;;;;5002938;28;20022;-87
2022/10/12 03:04:48;;;;;;;9.98;4.28;;;10.10;97.40;;;;;;5012201;28;20028;-87
2022/10/12 03:07:14;;;;;;;10.00;3.65;;;10.10;97.40;;;;;;4999008;28;20050;-87
2022/10/12 03:09:40;;;;;;;11.45;3.60;;;10.00;97.40;;;;;;5010133;28;20025;-87
2022/10/12 03:12:05;;;;;;;10.75;4.07;;;10.00;97.40;;;;;;4985949;28;20328;-87
2022/10/12 03:14:33;;;;;;;7.55;3.70;;;10.00;97.40;;;;;;5004740;28;20033;-87
2022/10/12 03:16:59;;;;;;;7.25;2.95;;;10.00;97.40;;;;;;4983606;28;20018;-87
2022/10/12 03:19:25;;;;;;;7.50;3.20;;;9.90;97.50;;;;;;5031080;28;20034;-87
2022/10/12 03:21:51;;;;;;;7.50;3.40;;;9.90;97.50;;;;;;5015473;28;20115;-87
2022/10/12 03:24:16;;;;;;;8.25;3.40;;;9.90;97.60;;;;;;4983085;28;20192;-87
2022/10/12 03:26:42;;;;;;;7.30;2.80;;;9.90;97.50;;;;;;5002301;28;20030;-87
2022/10/12 03:29:08;;;;;;;7.10;2.72;;;9.90;97.50;;;;;;5036063;28;20079;-87
2022/10/12 03:31:33;;;;;;;6.03;2.35;;;9.80;97.40;;;;;;5002003;28;20022;-87
2022/10/12 03:33:59;;;;;;;4.95;2.40;;;9.80;97.40;;;;;;5004316;28;20536;-88
2022/10/12 03:36:25;;;;;;;4.95;2.30;;;9.80;97.40;;;;;;5013424;28;20368;-87
2022/10/12 03:38:51;;;;;;;9.35;3.30;;;9.80;97.40;;;;;;5035767;28;20037;-87
2022/10/12 03:41:16;;;;;;;5.40;2.60;;;9.70;97.40;;;;;;5002035;28;20060;-87
2022/10/12 03:43:42;;;;;;;6.35;2.35;;;9.70;97.50;;;;;;4985695;28;20128;-87
2022/10/12 03:46:08;;;;;;;6.15;2.50;;;9.70;97.70;;;;;;5032035;28;20364;-87
2022/10/12 03:48:33;;;;;;;5.05;2.10;;;9.60;97.70;;;;;;5011156;28;20024;-87
2022/10/12 03:50:59;;;;;;;6.82;2.28;;;9.60;97.70;;;;;;5021594;28;20048;-87
2022/10/12 03:53:25;;;;;;;5.47;2.35;;;9.60;97.80;;;;;;5016474;28;20368;-88
2022/10/12 03:55:51;;;;;;;6.07;2.83;;;9.60;97.80;;;;;;5031887;28;20406;-86
2022/10/12 03:58:17;;;;;;;3.33;2.20;;;9.50;97.80;;;;;;5005989;23;20476;-87
2022/10/12 04:00:43;;;;;;;7.20;2.58;;;9.50;97.80;;;;;;4966720;28;20031;-87
2022/10/12 04:03:09;;;;;;;5.47;2.90;;;9.50;97.80;;;;;;4978755;28;20084;-87
2022/10/12 04:05:35;;;;;;;6.43;2.90;;;9.50;97.80;;;;;;4961026;28;20026;-87
2022/10/12 04:08:07;;;;;;;6.07;2.67;;;9.50;97.90;;;;;;4985681;28;20027;-87
2022/10/12 04:10:33;;;;;;;9.50;2.70;;;9.40;97.90;;;;;;4971586;29;20034;-87
2022/10/12 04:12:58;;;;;;;10.15;3.28;;;9.40;97.90;;;;;;4969647;28;20032;-87
2022/10/12 04:15:24;;;;;;;8.32;3.17;;;9.40;97.90;;;;;;4963961;28;20507;-87
2022/10/12 04:17:50;;;;;;;5.10;2.80;;;9.40;97.90;;;;;;4972753;28;20059;-87
2022/10/12 04:20:15;;;;;;;7.05;3.30;;;9.40;98.00;;;;;;4976505;28;20026;-87
2022/10/12 04:22:41;;;;;;;9.38;3.38;;;9.30;98.00;;;;;;4956854;28;20571;-86
2022/10/12 04:25:10;;;;;;;9.15;3.13;;;9.30;98.10;;;;;;4968426;28;20062;-85
2022/10/12 04:27:35;;;;;;;11.60;3.80;;;9.30;98.20;;;;;;4969114;28;20031;-85
2022/10/12 04:30:01;;;;;;;9.90;3.55;;;9.30;98.20;;;;;;4958985;28;20038;-85
2022/10/12 04:32:27;;;;;;;5.88;3.45;;;9.30;98.20;;;;;;4947935;28;20034;-86
2022/10/12 04:34:53;;;;;;;10.77;4.10;;;9.20;98.50;;;;;;4972454;28;20392;-85
2022/10/12 04:37:18;;;;;;;11.98;3.80;;;9.20;98.30;;;;;;4975131;28;20073;-86
2022/10/12 04:39:44;;;;;;;9.52;3.67;;;9.20;98.30;;;;;;4974890;28;20035;-86
2022/10/12 04:42:09;;;;;;;8.70;3.70;;;9.20;98.30;;;;;;4958664;28;20444;-86
2022/10/12 04:44:35;;;;;;;11.52;3.78;;;9.20;98.40;;;;;;4962312;28;20122;-86
2022/10/12 04:47:01;;;;;;;7.00;4.25;;;9.20;98.50;;;;;;4943061;28;20034;-86
2022/10/12 04:49:27;;;;;;;10.27;3.75;;;9.10;98.50;;;;;;4974843;28;20089;-86
2022/10/12 04:51:52;;;;;;;7.28;3.67;;;9.10;98.60;;;;;;4958366;28;20034;-86
2022/10/12 04:54:18;;;;;;;11.18;4.00;;;9.10;98.60;;;;;;4974644;28;20035;-86
2022/10/12 04:56:43;;;;;;;11.32;4.07;;;9.10;98.60;;;;;;4962182;28;20114;-86
2022/10/12 04:59:09;;;;;;;11.90;4.28;;;9.10;98.60;;;;;;4988985;28;20112;-86
2022/10/12 05:01:35;;;;;;;9.25;4.22;;;9.10;98.70;;;;;;4977557;28;20077;-86
2022/10/12 05:04:00;;;;;;;12.60;4.72;;;9.10;98.70;;;;;;4979952;28;20408;-86
2022/10/12 05:06:26;;;;;;;9.95;4.15;;;9.00;98.70;;;;;;4993911;28;20073;-86
2022/10/12 05:08:52;;;;;;;11.30;4.07;;;9.00;98.70;;;;;;4993466;28;20030;-86
2022/10/12 05:11:17;;;;;;;10.38;4.50;;;9.00;98.70;;;;;;4969934;28;20392;-86
2022/10/12 05:13:43;;;;;;;8.38;3.70;;;9.00;98.70;;;;;;4971757;28;20152;-86
2022/10/12 05:16:09;;;;;;;7.97;3.70;;;8.90;98.70;;;;;;4995279;28;20495;-88
2022/10/12 05:18:34;;;;;;;10.40;3.88;;;8.90;98.70;;;;;;4994889;28;20030;-85
2022/10/12 05:21:00;;;;;;;10.75;3.50;;;8.90;98.70;;;;;;4963952;28;20165;-86
2022/10/12 05:23:26;;;;;;;5.65;3.45;;;8.90;98.70;;;;;;4967987;28;20117;-86
2022/10/12 05:25:54;;;;;;;7.72;3.63;;;8.90;99.00;;;;;;4993722;28;20113;-86
2022/10/12 05:28:20;;;;;;;9.00;3.60;;;8.80;98.80;;;;;;4986401;28;20025;-86
2022/10/12 05:30:49;;;;;;;8.57;3.78;;;8.80;98.80;;;;;;4974593;28;20391;-86
2022/10/12 05:33:15;;;;;;;8.32;3.50;;;8.80;98.90;;;;;;4993606;28;20031;-83
2022/10/12 05:35:41;;;;;;;11.20;3.95;;;8.80;98.90;;;;;;4993341;28;20068;-83
2022/10/12 05:38:06;;;;;;;7.78;3.90;;;8.80;98.90;;;;;;4993310;28;20034;-83
2022/10/12 05:40:32;;;;;;;8.70;3.50;;;8.80;99.00;;;;;;4993447;28;20085;-83
2022/10/12 05:42:58;;;;;;;8.82;3.70;;;8.80;99.00;;;;;;4994203;28;20113;-83
2022/10/12 05:45:23;;;;;;;12.20;4.35;;;8.70;99.00;;;;;;4968612;28;20373;-84
2022/10/12 05:47:49;;;;;;;8.27;4.45;;;8.70;99.00;;;;;;4973673;28;20038;-83
2022/10/12 05:50:15;;;;;;;9.10;3.72;;;8.70;99.00;;;;;;4944688;28;20034;-82
2022/10/12 05:52:40;;;;;;;10.40;5.15;;;8.70;99.10;;;;;;4973766;28;20060;-83
2022/10/12 05:55:07;;;;;;;8.77;4.28;;;8.70;99.10;;;;;;4972102;28;20191;-83
2022/10/12 05:57:33;;;;;;;12.30;4.68;;;8.60;99.10;;;;;;4969205;28;20096;-83
2022/10/12 05:59:58;;;;;;;9.60;4.80;;;8.60;99.20;;;;;;5011159;28;20489;-83
2022/10/12 06:02:24;;;;;;;9.30;4.35;;;8.60;99.30;;;;;;4996220;28;20474;-83
2022/10/12 06:04:49;;;;;;;12.00;4.95;;;8.60;99.40;;;;;;5009757;28;20048;-83
2022/10/12 06:07:15;;;;;;;9.18;4.50;;;8.60;99.50;;;;;;5002594;28;20022;-83
2022/10/12 06:09:43;;;;;;;6.47;3.40;;;8.60;99.50;;;;;;4970896;28;20024;-84
2022/10/12 06:12:09;;;;;;;11.93;4.20;;;8.60;99.60;;;;;;4994449;28;20029;-83
2022/10/12 06:14:34;;;;;;;10.15;4.32;;;8.60;99.60;;;;;;4967908;28;20022;-83
2022/10/12 06:17:00;;;;;;;11.05;4.53;;;8.60;99.70;;;;;;5000160;28;20018;-83
2022/10/12 06:19:26;;;;;;;11.18;4.75;;;8.60;99.70;;;;;;5031891;28;20372;-84
2022/10/12 06:21:52;;;;;;;10.13;4.57;;;8.60;99.80;;;;;;4979611;28;20026;-83
2022/10/12 06:24:17;;;;;;;8.13;5.18;;;8.60;99.90;;;;;;4990127;28;20471;-84
2022/10/12 06:26:43;;;;;;;8.40;4.90;;;8.60;99.90;;;;;;5019956;28;20029;-83
2022/10/12 06:29:09;;;;;;;9.55;5.13;;;8.60;99.90;;;;;;5019460;28;20200;-84
2022/10/12 06:31:36;;;;;;;16.98;5.43;;;8.60;99.90;;;;;;5012870;28;20383;-84
2022/10/12 06:34:02;;;;;;;12.35;5.95;;;8.60;99.90;;;;;;5017814;28;20113;-85
2022/10/12 06:36:28;;;;;;;12.60;6.13;;;8.60;99.90;;;;;;4967416;28;20160;-85
2022/10/12 06:38:54;;;;;;;14.90;6.95;;;8.70;99.90;;;;;;4983537;28;20038;-84
2022/10/12 06:41:19;;;;;;;16.45;6.50;;;8.70;99.90;;;;;;5016595;28;20036;-85
2022/10/12 06:43:45;;;;;;;12.93;6.32;;;8.70;99.90;;;;;;4996855;28;20025;-85
2022/10/12 06:46:10;;;;;;;12.73;6.55;;;8.70;99.90;;;;;;4987364;28;20036;-84
2022/10/12 06:48:36;;;;;;;17.92;6.57;;;8.70;99.90;;;;;;5022606;28;20032;-85
2022/10/12 06:51:02;;;;;;;13.57;6.50;;;8.80;99.90;;;;;;5024471;28;20073;-86
2022/10/12 06:53:30;;;;;;;13.63;6.65;;;8.80;99.90;;;;;;4983334;28;20076;-85
2022/10/12 06:55:55;;;;;;;14.30;6.45;;;8.80;99.90;;;;;;4999837;28;20475;-85
2022/10/12 06:58:21;;;;;;;13.18;6.28;;;8.90;99.90;;;;;;5017596;28;20049;-85
2022/10/12 07:00:47;;;;;;;13.93;6.28;;;8.90;99.90;;;;;;4993784;28;20077;-85
2022/10/12 07:03:13;;;;;;;12.07;6.43;;;8.90;99.90;;;;;;5019204;28;20121;-85
2022/10/12 07:05:39;;;;;;;10.30;5.85;;;8.90;99.90;;;;;;5036808;28;20100;-84
2022/10/12 07:08:04;;;;;;;14.13;6.95;;;8.90;99.90;;;;;;5036873;28;20505;-84
2022/10/12 07:10:30;;;;;;;15.27;7.43;;;9.00;99.90;;;;;;5003882;28;20030;-83
2022/10/12 07:12:56;;;;;;;12.27;7.25;;;9.00;99.90;;;;;;5006381;28;20028;-84
2022/10/12 07:15:21;;;;;;;12.15;6.32;;;9.00;99.90;;;;;;4989086;28;20044;-83
2022/10/12 07:17:47;;;;;;;15.70;7.03;;;9.00;99.90;;;;;;4966444;28;20100;-84
2022/10/12 07:20:12;;;;;;;13.55;6.28;;;9.00;99.90;;;;;;4999079;28;20034;-83
2022/10/12 07:22:38;;;;;;;15.48;6.57;;;9.00;99.90;;;;;;5003536;28;20453;-83
2022/10/12 07:25:04;;;;;;;17.80;6.38;;;9.10;99.90;;;;;;4984664;28;20037;-82
2022/10/12 07:27:30;;;;;;;14.60;6.65;;;9.10;99.90;;;;;;5017326;28;20117;-82
2022/10/12 07:29:56;;;;;;;12.38;6.47;;;9.10;99.90;;;;;;5012900;28;20038;-83
2022/10/12 07:32:21;;;;;;;15.32;7.07;;;9.10;99.90;;;;;;5000542;28;20034;-82
2022/10/12 07:34:47;;;;;;;13.65;6.82;;;9.10;99.90;;;;;;5013019;28;20374;-83
2022/10/12 07:37:14;;;;;;;15.65;6.85;;;9.20;99.90;;;;;;4984045;28;20063;-82
2022/10/12 07:39:40;;;;;;;12.02;6.72;;;9.20;99.90;;;;;;4999411;28;20023;-83
2022/10/12 07:42:06;;;;;;;13.85;6.88;;;9.20;99.90;;;;;;5019271;28;20392;-82
2022/10/12 07:44:32;;;;;;;12.95;7.80;;;9.20;99.90;;;;;;5000757;28;20464;-82
2022/10/12 07:46:58;;;;;;;21.17;9.48;;;9.20;99.90;;;;;;5013495;28;20036;-84
2022/10/12 07:49:23;;;;;;;13.38;7.90;;;9.20;99.90;;;;;;5024005;28;20061;-84
2022/10/12 07:51:49;;;;;;;22.23;8.27;;;9.20;99.90;;;;;;5006843;28;20013;-84
2022/10/12 07:54:15;;;;;;;15.38;8.02;;;9.30;99.90;;;;;;5002193;28;20083;-82
2022/10/12 07:56:41;;;;;;;19.70;8.77;;;9.20;99.90;;;;;;5013982;28;20038;-83
2022/10/12 07:59:07;;;;;;;15.88;8.27;;;9.20;99.90;;;;;;5013751;28;20086;-83
2022/10/12 08:01:33;;;;;;;16.25;8.38;;;9.30;99.90;;;;;;5023661;28;20041;-83
2022/10/12 08:03:59;;;;;;;17.02;8.70;;;9.30;99.90;;;;;;4983786;28;20387;-82
2022/10/12 08:06:27;;;;;;;16.05;9.35;;;9.30;99.90;;;;;;5003736;28;20025;-82
2022/10/12 08:08:53;;;;;;;15.95;8.73;;;9.30;99.90;;;;;;5010033;28;20379;-81
2022/10/12 08:11:20;;;;;;;17.02;8.05;;;9.30;99.90;;;;;;4994991;28;20026;-81
2022/10/12 08:13:46;;;;;;;12.73;8.43;;;9.30;99.90;;;;;;5017067;28;20395;-81
2022/10/12 08:16:15;;;;;;;12.98;7.88;;;9.40;99.90;;;;;;5003861;28;20022;-82
2022/10/12 08:18:41;;;;;;;16.50;8.40;;;9.40;99.90;;;;;;5021291;28;20018;-82
2022/10/12 08:21:08;;;;;;;19.52;8.68;;;9.40;99.90;;;;;;4990644;28;20043;-82
2022/10/12 08:23:35;;;;;;;17.10;9.55;;;9.40;99.90;;;;;;5009717;28;20045;-82
2022/10/12 08:26:02;;;;;;;17.13;7.95;;;9.50;99.90;;;;;;5023828;28;20037;-82
2022/10/12 08:28:28;;;;;;;15.90;9.48;;;9.50;99.90;;;;;;5023423;28;20014;-83
2022/10/12 08:30:54;;;;;;;16.85;9.13;;;9.50;99.90;;;;;;5008928;28;20032;-81
2022/10/12 08:33:19;;;;;;;12.95;8.35;;;9.60;99.90;;;;;;4990371;28;20025;-82
2022/10/12 08:35:49;;;;;;;17.02;9.55;;;9.60;99.90;;;;;;4985863;28;20025;-83
2022/10/12 08:38:15;;;;;;;15.95;9.55;;;9.60;99.90;;;;;;5005764;28;20026;-82
2022/10/12 08:40:52;;;;;;;15.23;8.85;;;9.70;99.90;;;;;;5010676;28;20041;-82
2022/10/12 08:43:45;;;;;;;20.73;10.10;;;9.70;99.90;;;;;;5032381;28;20440;-82
2022/10/12 08:46:10;;;;;;;21.63;10.15;;;9.80;99.90;;;;;;5021668;28;20030;-81
2022/10/12 08:49:01;;;;;;;16.73;9.07;;;9.80;99.90;;;;;;5013756;28;20028;-82
2022/10/12 08:51:30;;;;;;;20.60;10.20;;;9.90;99.90;;;;;;4995838;28;20029;-83
2022/10/12 08:54:06;;;;;;;16.27;9.35;;;9.90;99.90;;;;;;5025423;28;20108;-83
2022/10/12 08:56:34;;;;;;;15.82;9.75;;;9.90;99.90;;;;;;4997603;28;20430;-82
2022/10/12 08:59:00;;;;;;;15.55;9.55;;;10.00;99.90;;;;;;5014496;28;20076;-83
2022/10/12 09:01:35;;;;;;;15.98;9.07;;;10.00;99.90;;;;;;4997009;28;20029;-82
2022/10/12 09:04:13;;;;;;;14.32;8.57;;;10.10;99.90;;;;;;4997051;28;20033;-82
2022/10/12 09:06:41;;;;;;;19.25;9.40;;;10.10;99.90;;;;;;4985253;28;20033;-82
2022/10/12 09:09:26;;;;;;;17.38;8.45;;;10.20;99.90;;;;;;5011791;28;20557;-83
2022/10/12 09:12:08;;;;;;;16.67;9.00;;;10.20;99.90;;;;;;5018304;28;20446;-83
2022/10/12 09:14:37;;;;;;;14.65;7.95;;;10.30;99.90;;;;;;5019994;28;20160;-83
2022/10/12 09:17:27;;;;;;;18.17;9.60;;;10.30;99.90;;;;;;5023224;28;20009;-83
2022/10/12 09:20:09;;;;;;;17.10;8.80;;;10.40;99.90;;;;;;5013043;28;20029;-83
2022/10/12 09:22:35;;;;;;;15.65;8.90;;;10.50;99.90;;;;;;5008435;28;20112;-83
2022/10/12 09:25:02;;;;;;;16.50;9.75;;;10.50;99.90;;;;;;4983811;28;20512;-83
2022/10/12 09:27:29;;;;;;;17.83;9.90;;;10.60;99.90;;;;;;5033978;28;20482;-87
2022/10/12 09:30:00;;;;;;;19.40;9.68;;;10.70;99.90;;;;;;5014105;28;20056;-83
2022/10/12 09:32:34;;;;;;;14.60;9.20;;;10.80;99.90;;;;;;5029458;28;20025;-82
2022/10/12 09:35:03;;;;;;;13.70;8.90;;;10.80;99.90;;;;;;5030197;28;20075;-83
2022/10/12 09:37:31;;;;;;;16.52;8.40;;;11.00;99.90;;;;;;5016028;28;20029;-83
2022/10/12 09:39:58;;;;;;;17.42;8.90;;;11.00;99.90;;;;;;5015350;28;20383;-83
2022/10/12 09:42:24;;;;;;;15.90;8.65;;;11.10;99.90;;;;;;4998526;28;20018;-83
2022/10/12 09:44:55;;;;;;;15.90;8.90;;;11.20;99.90;;;;;;4996804;28;20048;-83
2022/10/12 09:47:26;;;;;;;15.80;9.82;;;11.20;99.90;;;;;;5013126;28;20455;-81
2022/10/12 09:49:56;;;;;;;23.52;9.93;;;11.30;99.90;;;;;;5014022;28;20490;-82
2022/10/12 09:52:31;;;;;;;18.33;9.35;;;11.40;99.90;;;;;;4996814;28;20161;-81
2022/10/12 09:55:00;;;;;;;17.80;8.70;;;11.50;99.90;;;;;;4983388;28;20014;-83
2022/10/12 09:57:53;;;;;;;21.70;10.27;;;11.60;99.90;;;;;;5026600;28;20061;-83
2022/10/12 10:00:26;;;;;;;17.17;8.50;;;11.70;99.90;;;;;;4985352;28;20025;-82
2022/10/12 10:02:53;;;;;;;18.05;9.30;;;11.80;99.90;;;;;;4994302;28;20075;-82
2022/10/12 10:05:28;;;;;;;18.13;9.52;;;11.90;99.90;;;;;;4976504;28;20155;-82
2022/10/12 10:08:21;;;;;;;19.38;9.65;;;12.00;99.90;;;;;;5032212;28;20548;-83
2022/10/12 10:10:55;;;;;;;18.35;9.70;;;12.10;99.90;;;;;;5021848;28;20099;-82
2022/10/12 10:13:25;;;;;;;19.65;9.43;;;12.20;99.90;;;;;;4988407;28;20032;-83
2022/10/12 10:16:02;;;;;;;17.15;9.75;;;12.30;99.90;;;;;;5010752;28;20076;-83
2022/10/12 10:18:43;;;;;;;21.38;9.98;;;12.50;99.90;;;;;;4996438;28;20032;-82
2022/10/12 10:21:15;;;;;;;16.65;10.13;;;12.50;99.90;;;;;;5014252;28;20490;-83
2022/10/12 10:24:00;;;;;;;25.10;11.15;;;12.70;99.90;;;;;;5014055;28;20032;-83
2022/10/12 10:26:28;;;;;;;22.70;10.60;;;12.80;99.90;;;;;;5015173;28;20025;-83
2022/10/12 10:29:25;;;;;;;22.75;11.27;;;12.90;99.90;;;;;;5033984;28;20014;-83
2022/10/12 10:32:10;;;;;;;20.30;9.65;;;13.00;99.90;;;;;;4998435;28;20483;-83
2022/10/12 10:34:36;;;;;;;23.42;10.55;;;13.10;99.90;;;;;;5003921;28;20026;-82
2022/10/12 10:37:05;;;;;;;17.33;9.65;;;13.20;99.90;;;;;;4992394;28;20030;-83
2022/10/12 10:39:54;;;;;;;21.02;10.20;;;13.30;99.90;;;;;;4996420;28;20093;-82
2022/10/12 10:42:27;;;;;;;16.40;9.77;;;13.40;99.90;;;;;;4993474;28;20038;-83
2022/10/12 10:45:01;;;;;;;16.60;9.40;;;13.50;99.90;;;;;;5013383;28;20049;-82
2022/10/12 10:47:28;;;;;;;17.95;9.60;;;13.60;99.90;;;;;;4995896;28;20036;-82
2022/10/12 10:49:58;;;;;;;19.88;9.73;;;13.70;99.90;;;;;;4979813;28;20033;-82
2022/10/12 10:52:35;;;;;;;20.08;9.27;;;13.80;99.90;;;;;;5008823;28;20032;-82
2022/10/12 10:55:21;;;;;;;18.65;9.40;;;13.90;99.90;;;;;;4995698;28;20076;-82
2022/10/12 10:58:04;;;;;;;20.80;9.43;;;14.00;99.90;;;;;;4988512;28;20392;-82
2022/10/12 11:00:34;;;;;;;19.38;9.88;;;14.10;99.90;;;;;;4999216;28;20026;-83
2022/10/12 11:03:20;;;;;;;17.17;9.52;;;14.20;99.90;;;;;;5008920;28;20032;-84
2022/10/12 11:05:53;;;;;;;18.20;8.90;;;14.30;99.90;;;;;;5019616;28;20028;-83
2022/10/12 11:08:24;;;;;;;17.08;9.65;;;14.50;99.90;;;;;;5030377;28;20022;-83
2022/10/12 11:10:55;;;;;;;25.05;10.85;;;14.60;99.90;;;;;;5016435;28;20022;-82
2022/10/12 11:13:51;;;;;;;17.33;9.30;;;14.70;99.90;;;;;;5002919;28;20021;-84
2022/10/12 11:16:44;;;;;;;17.98;9.90;;;14.80;99.90;;;;;;4994137;28;20045;-83
2022/10/12 11:19:41;;;;;;;18.38;8.68;;;14.90;99.90;;;;;;5013748;28;20033;-83
2022/10/12 11:22:39;;;;;;;21.33;11.13;;;15.00;98.90;;;;;;4999355;28;20021;-83
2022/10/12 11:25:28;;;;;;;27.70;10.93;;;15.10;98.70;;;;;;4991343;28;20038;-84
2022/10/12 11:27:54;;;;;;;21.80;11.80;;;15.20;98.80;;;;;;5021374;28;20017;-83
2022/10/12 11:30:27;;;;;;;19.65;10.00;;;15.30;98.50;;;;;;5019284;28;20451;-84
2022/10/12 11:33:12;;;;;;;23.25;11.00;;;15.40;98.20;;;;;;5023189;28;20025;-84
2022/10/12 11:35:42;;;;;;;20.17;10.43;;;15.50;97.90;;;;;;5019489;28;20493;-83
2022/10/12 11:38:29;;;;;;;20.55;10.70;;;15.60;97.60;;;;;;5037217;28;20540;-83
2022/10/12 11:40:55;;;;;;;16.05;9.55;;;15.70;97.20;;;;;;5019161;28;20026;-83
2022/10/12 11:43:36;;;;;;;17.55;10.20;;;15.80;97.10;;;;;;5036296;28;20083;-83
2022/10/12 11:46:05;;;;;;;;;;;15.90;96.90;;;;;;5022851;28;20053;-83
2022/10/12 11:48:41;;;;;;;20.73;10.45;;;16.00;96.50;;;;;;5016373;28;19927;-83
2022/10/12 11:51:07;;;;;;;19.08;9.73;;;16.20;96.90;;;;;;5015954;28;20034;-83
2022/10/12 11:53:45;;;;;;;17.83;9.10;;;16.20;96.50;;;;;;4995626;28;20483;-83
2022/10/12 11:56:20;;;;;;;18.17;9.38;;;16.40;96.40;;;;;;5009977;28;20032;-83
2022/10/12 11:58:49;;;;;;;17.63;9.63;;;16.40;95.80;;;;;;5035418;28;20076;-82
2022/10/12 12:01:23;;;;;;;16.40;9.60;;;16.50;95.20;;;;;;5006386;28;20022;-83
2022/10/12 12:04:23;;;;;;;19.85;10.02;;;16.60;95.10;;;;;;5016510;28;20032;-83
2022/10/12 12:07:33;;;;;;;21.08;9.45;;;16.70;94.80;;;;;;5020179;28;20057;-83
2022/10/12 12:09:59;;;;;;;15.65;9.13;;;16.70;93.30;;;;;;4954274;28;20071;-83
2022/10/12 12:12:27;;;;;;;21.23;9.55;;;16.70;93.70;;;;;;4924407;29;20062;-83
2022/10/12 12:15:20;;;;;;;23.08;10.02;;;16.70;93.90;;;;;;5017905;28;20080;-83
2022/10/12 12:18:24;;;;;;;18.98;9.52;;;16.70;94.00;;;;;;5027647;28;20014;-83
2022/10/12 12:21:06;;;;;;;20.88;10.02;;;16.80;94.10;;;;;;5012440;28;20387;-84
2022/10/12 12:23:39;;;;;;;14.73;8.82;;;16.90;94.30;;;;;;5029070;28;20160;-83
2022/10/12 12:26:11;;;;;;;18.98;8.80;;;17.00;94.30;;;;;;4991501;28;20451;-84
2022/10/12 12:28:48;;;;;;;21.42;9.65;;;17.00;93.80;;;;;;5005191;28;20025;-83
2022/10/12 12:31:23;;;;;;;16.23;7.93;;;17.10;93.40;;;;;;5004349;28;20481;-83
2022/10/12 12:34:03;;;;;;;16.02;8.50;;;17.20;93.50;;;;;;5009634;28;20104;-83
2022/10/12 12:36:38;;;;;;;17.27;7.97;;;17.30;93.50;;;;;;4979251;28;20023;-83
2022/10/12 12:39:07;;;;;;;15.13;7.90;;;17.40;93.40;;;;;;5024138;28;20029;-83
2022/10/12 12:41:50;;;;;;;15.38;6.55;;;17.40;92.30;;;;;;5026430;28;20030;-82
2022/10/12 12:44:40;;;;;;;14.60;6.47;;;17.40;91.60;;;;;;5012884;28;20442;-82
2022/10/12 12:47:06;;;;;;;12.30;5.30;;;17.50;91.40;;;;;;4995153;28;20033;-82
2022/10/12 12:49:53;;;;;;;12.60;4.55;;;17.50;91.30;;;;;;5002019;28;20033;-83
2022/10/12 12:52:47;;;;;;;11.23;4.47;;;17.50;91.10;;;;;;4993783;28;20024;-83
2022/10/12 12:55:13;;;;;;;15.35;4.18;;;17.50;90.60;;;;;;5030269;28;20034;-83
2022/10/12 12:57:57;;;;;;;12.32;4.53;;;17.50;90.30;;;;;;5006683;28;20048;-84
2022/10/12 13:00:25;;;;;;;10.63;4.43;;;17.50;89.50;;;;;;5015976;28;20030;-83
2022/10/12 13:03:20;;;;;;;15.75;5.15;;;17.50;89.60;;;;;;4996790;28;20471;-83
2022/10/12 13:06:07;;;;;;;16.95;5.35;;;17.50;88.90;;;;;;4997106;28;20025;-83